Time;durP1;ratioP1;P1;durP2;ratioP2;P2;SDS_P1;SDS_P2;PMS_P1;PMS_P2;Temp;Humidity;BMP_temperature;BMP_pressure;BME280_temperature;BME280_humidity;BME280_pressure;Samples;Min_cycle;Max_cycle;Signal;HPM_P1;HPM_P2
2021/12/08 00:01:08;;;;;;;0.20;0.20;;;1.30;99.90;;;;;;5018048;28;20611;-68
2021/12/08 00:03:35;;;;;;;0.10;0.10;;;1.30;99.90;;;;;;5012413;28;20626;-68
2021/12/08 00:06:03;;;;;;;0.20;0.20;;;1.30;99.90;;;;;;5012880;28;20622;-68
2021/12/08 00:08:33;;;;;;;0.20;0.20;;;1.30;99.90;;;;;;5009926;28;20690;-68
2021/12/08 00:13:45;;;;;;;0.20;0.20;;;1.20;99.90;;;;;;5011641;28;20631;-69
2021/12/08 00:16:14;;;;;;;0.20;0.20;;;1.20;99.90;;;;;;5016673;28;20651;-68
2021/12/08 00:18:47;;;;;;;0.10;0.10;;;1.20;99.90;;;;;;5019974;28;20651;-68
2021/12/08 00:21:16;;;;;;;0.10;0.10;;;1.20;99.90;;;;;;5015294;28;20703;-68
2021/12/08 00:23:43;;;;;;;0.10;0.10;;;1.20;99.90;;;;;;5017235;28;20677;-68
2021/12/08 00:26:11;;;;;;;0.10;0.10;;;1.20;99.90;;;;;;5007362;28;20646;-68
2021/12/08 00:28:38;;;;;;;0.20;0.20;;;1.20;99.90;;;;;;5010172;28;20678;-68
2021/12/08 00:31:06;;;;;;;0.20;0.20;;;1.30;99.90;;;;;;5013580;28;20693;-68
2021/12/08 00:33:36;;;;;;;0.20;0.20;;;1.30;99.90;;;;;;5008375;28;20628;-68
2021/12/08 00:36:06;;;;;;;0.20;0.20;;;1.30;99.90;;;;;;5018835;28;20607;-68
2021/12/08 00:38:33;;;;;;;0.20;0.20;;;1.30;99.90;;;;;;5006140;28;20634;-68
2021/12/08 00:41:01;;;;;;;0.20;0.20;;;1.30;99.90;;;;;;5003825;28;20642;-68
2021/12/08 00:43:27;;;;;;;0.10;0.10;;;1.30;99.90;;;;;;5014284;28;20631;-68
2021/12/08 00:45:55;;;;;;;0.20;0.20;;;1.30;99.90;;;;;;5008185;28;20661;-68
2021/12/08 00:48:23;;;;;;;0.10;0.10;;;1.30;99.90;;;;;;5009810;28;20703;-68
2021/12/08 00:50:52;;;;;;;0.20;0.20;;;1.30;99.90;;;;;;5011292;28;20663;-68
2021/12/08 00:53:20;;;;;;;0.20;0.20;;;1.30;99.90;;;;;;5008787;28;20673;-68
2021/12/08 00:55:47;;;;;;;0.20;0.20;;;1.30;99.90;;;;;;5011852;28;20636;-68
2021/12/08 00:58:14;;;;;;;0.10;0.10;;;1.30;99.90;;;;;;5017465;28;20698;-68
2021/12/08 01:00:44;;;;;;;0.20;0.20;;;1.30;99.90;;;;;;5011634;28;20627;-68
2021/12/08 01:03:13;;;;;;;0.20;0.20;;;1.40;99.90;;;;;;5014643;28;20627;-68
2021/12/08 01:05:44;;;;;;;0.10;0.10;;;1.40;99.90;;;;;;5008795;28;20608;-68
2021/12/08 01:08:13;;;;;;;0.20;0.20;;;1.40;99.90;;;;;;5014869;28;20675;-68
2021/12/08 01:10:42;;;;;;;0.20;0.20;;;1.40;99.90;;;;;;5013571;28;20657;-68
2021/12/08 01:13:11;;;;;;;0.20;0.20;;;1.40;99.90;;;;;;5008353;28;20628;-68
2021/12/08 01:15:40;;;;;;;0.13;0.13;;;1.40;99.90;;;;;;5012584;28;20717;-68
2021/12/08 01:18:07;;;;;;;0.10;0.10;;;1.40;99.90;;;;;;5002801;28;20757;-68
2021/12/08 01:20:35;;;;;;;0.10;0.10;;;1.40;99.90;;;;;;5007395;28;20282;-68
2021/12/08 01:23:01;;;;;;;0.17;0.17;;;1.50;99.90;;;;;;5017005;28;20649;-68
2021/12/08 01:25:30;;;;;;;0.20;0.20;;;1.50;99.90;;;;;;5015688;28;20638;-68
2021/12/08 01:27:57;;;;;;;0.13;0.13;;;1.50;99.90;;;;;;5010284;28;20766;-68
2021/12/08 01:30:25;;;;;;;0.20;0.20;;;1.50;99.90;;;;;;5017608;28;20681;-68
2021/12/08 01:32:53;;;;;;;0.10;0.10;;;1.50;99.90;;;;;;5007308;28;20611;-68
2021/12/08 01:35:21;;;;;;;0.10;0.10;;;1.50;99.90;;;;;;5004408;28;20624;-68
2021/12/08 01:37:48;;;;;;;0.20;0.20;;;1.50;99.90;;;;;;5004050;28;20667;-68
2021/12/08 01:40:18;;;;;;;0.10;0.10;;;1.50;99.90;;;;;;5014037;28;20714;-67
2021/12/08 01:42:50;;;;;;;0.20;0.20;;;1.50;99.90;;;;;;5011960;28;20638;-68
2021/12/08 01:48:06;;;;;;;0.10;0.10;;;1.60;99.90;;;;;;5013194;28;21086;-69
2021/12/08 01:50:34;;;;;;;0.10;0.10;;;1.60;99.90;;;;;;5010900;28;20734;-68
2021/12/08 01:53:02;;;;;;;0.20;0.20;;;1.60;99.90;;;;;;5008091;28;20677;-68
2021/12/08 01:55:29;;;;;;;0.20;0.20;;;1.70;99.90;;;;;;5012931;28;21161;-68
2021/12/08 01:57:58;;;;;;;0.20;0.20;;;1.70;99.90;;;;;;5016026;28;20681;-68
2021/12/08 02:00:28;;;;;;;0.20;0.20;;;1.70;99.90;;;;;;5009322;28;20695;-68
2021/12/08 02:02:59;;;;;;;0.10;0.10;;;1.70;99.90;;;;;;5009124;28;20594;-68
2021/12/08 02:05:26;;;;;;;0.10;0.10;;;1.70;99.90;;;;;;5007097;28;20631;-68
2021/12/08 02:07:55;;;;;;;0.10;0.10;;;1.70;99.90;;;;;;5007991;28;20688;-68
2021/12/08 02:10:23;;;;;;;0.20;0.20;;;1.70;99.90;;;;;;5010685;28;21180;-68
2021/12/08 02:12:51;;;;;;;0.20;0.20;;;1.70;99.90;;;;;;5010873;28;20673;-67
2021/12/08 02:15:20;;;;;;;0.13;0.13;;;1.70;99.90;;;;;;5011520;28;20631;-68
2021/12/08 02:17:51;;;;;;;0.10;0.10;;;1.70;99.90;;;;;;5009507;28;20675;-68
2021/12/08 02:20:21;;;;;;;0.20;0.20;;;1.70;99.90;;;;;;5007381;28;21161;-68
2021/12/08 02:22:49;;;;;;;0.10;0.10;;;1.70;99.90;;;;;;5010629;28;20607;-68
2021/12/08 02:25:19;;;;;;;0.10;0.10;;;1.70;99.90;;;;;;5009511;28;20623;-68
2021/12/08 02:27:47;;;;;;;0.10;0.10;;;1.70;99.90;;;;;;5011200;28;20669;-68
2021/12/08 02:30:22;;;;;;;0.20;0.20;;;1.70;99.90;;;;;;5010337;28;20713;-69
2021/12/08 02:46:49;;;;;;;0.10;0.10;;;1.60;99.90;;;;;;5012534;28;20645;-67
2021/12/08 02:49:19;;;;;;;0.20;0.20;;;1.60;99.90;;;;;;5018574;28;20650;-68
2021/12/08 02:51:46;;;;;;;0.20;0.20;;;1.50;99.90;;;;;;5008200;28;20634;-68
2021/12/08 02:54:15;;;;;;;0.17;0.17;;;1.50;99.90;;;;;;5014673;28;20622;-68
2021/12/08 02:56:42;;;;;;;0.10;0.10;;;1.50;99.90;;;;;;5017029;28;20653;-69
2021/12/08 02:59:09;;;;;;;0.20;0.20;;;1.50;99.90;;;;;;5014403;28;20630;-68
2021/12/08 03:01:37;;;;;;;0.17;0.17;;;1.50;99.90;;;;;;5016239;28;20697;-68
2021/12/08 03:04:05;;;;;;;0.10;0.10;;;1.50;99.90;;;;;;5007820;28;20615;-68
2021/12/08 03:06:32;;;;;;;0.10;0.10;;;1.50;99.90;;;;;;5012688;28;20611;-68
2021/12/08 03:09:00;;;;;;;0.13;0.13;;;1.50;99.90;;;;;;5015647;28;20662;-68
2021/12/08 03:11:28;;;;;;;0.10;0.10;;;1.50;99.90;;;;;;5015061;28;20651;-68
2021/12/08 03:14:05;;;;;;;0.10;0.10;;;1.50;99.90;;;;;;5009636;28;20694;-68
2021/12/08 03:16:34;;;;;;;0.10;0.10;;;1.40;99.90;;;;;;5015066;28;20643;-68
2021/12/08 03:19:00;;;;;;;0.17;0.17;;;1.50;99.90;;;;;;5006956;28;20622;-68
2021/12/08 03:21:31;;;;;;;0.20;0.20;;;1.40;99.90;;;;;;5011960;28;21184;-68
2021/12/08 03:24:11;;;;;;;0.20;0.20;;;1.40;99.90;;;;;;5009009;28;20627;-68
2021/12/08 03:26:48;;;;;;;0.20;0.20;;;1.40;99.90;;;;;;5019721;28;20611;-68
2021/12/08 03:29:19;;;;;;;0.10;0.10;;;1.40;99.90;;;;;;5018215;28;20682;-68
2021/12/08 03:31:47;;;;;;;0.20;0.20;;;1.40;99.90;;;;;;5010716;28;20619;-68
2021/12/08 03:34:17;;;;;;;0.10;0.10;;;1.30;99.90;;;;;;5010116;28;21160;-68
2021/12/08 03:36:44;;;;;;;0.20;0.20;;;1.30;99.90;;;;;;5012917;28;20716;-68
2021/12/08 03:39:11;;;;;;;0.20;0.20;;;1.30;99.90;;;;;;5009951;28;20610;-68
2021/12/08 03:41:39;;;;;;;0.20;0.20;;;1.30;99.90;;;;;;5015439;28;20690;-68
2021/12/08 03:44:07;;;;;;;0.10;0.10;;;1.30;99.90;;;;;;5015308;28;20654;-68
2021/12/08 03:46:40;;;;;;;0.20;0.20;;;1.30;99.90;;;;;;5011260;28;20696;-69
2021/12/08 03:49:10;;;;;;;0.20;0.20;;;1.30;99.90;;;;;;5018772;28;21204;-68
2021/12/08 03:51:38;;;;;;;0.20;0.20;;;1.30;99.90;;;;;;5021190;28;20621;-68
2021/12/08 03:54:05;;;;;;;0.20;0.20;;;1.30;99.90;;;;;;5017957;28;21169;-69
2021/12/08 03:56:33;;;;;;;0.10;0.10;;;1.30;99.90;;;;;;5015604;28;21059;-68
2021/12/08 03:59:01;;;;;;;0.20;0.20;;;1.30;99.90;;;;;;5015464;28;20626;-68
2021/12/08 04:01:28;;;;;;;0.10;0.10;;;1.30;99.90;;;;;;5007452;28;20627;-68
2021/12/08 04:04:01;;;;;;;0.20;0.20;;;1.30;99.90;;;;;;5012378;28;20639;-69
2021/12/08 04:06:32;;;;;;;0.10;0.10;;;1.30;99.90;;;;;;5008562;28;20638;-68
2021/12/08 04:09:04;;;;;;;0.10;0.10;;;1.30;99.90;;;;;;5014891;28;20662;-68
2021/12/08 04:11:31;;;;;;;0.10;0.10;;;1.30;99.90;;;;;;5013214;28;20632;-68
2021/12/08 04:14:04;;;;;;;0.10;0.10;;;1.40;99.90;;;;;;5014514;28;20638;-67
2021/12/08 04:16:34;;;;;;;0.10;0.10;;;1.30;99.90;;;;;;5013039;28;20689;-68
2021/12/08 04:19:02;;;;;;;0.17;0.17;;;1.40;99.90;;;;;;5007956;28;20891;-68
2021/12/08 04:21:30;;;;;;;0.10;0.10;;;1.30;99.90;;;;;;5013999;28;20619;-68
2021/12/08 04:23:57;;;;;;;0.10;0.10;;;1.40;99.90;;;;;;5007910;28;20621;-68
2021/12/08 04:26:30;;;;;;;0.20;0.20;;;1.30;99.90;;;;;;5011031;28;20654;-68
2021/12/08 04:28:58;;;;;;;0.20;0.20;;;1.40;99.90;;;;;;5014113;28;20654;-68
2021/12/08 04:31:28;;;;;;;0.10;0.10;;;1.40;99.90;;;;;;5012319;28;20693;-68
2021/12/08 04:34:00;;;;;;;0.10;0.10;;;1.30;99.90;;;;;;5008835;28;20631;-68
2021/12/08 04:36:31;;;;;;;0.10;0.10;;;1.40;99.90;;;;;;5008797;28;20619;-68
2021/12/08 04:39:02;;;;;;;0.10;0.10;;;1.30;99.90;;;;;;5001618;28;20720;-67
2021/12/08 04:41:35;;;;;;;0.10;0.10;;;1.30;99.90;;;;;;5010644;28;20642;-68
2021/12/08 04:44:12;;;;;;;0.10;0.10;;;1.40;99.90;;;;;;5005162;28;20663;-68
2021/12/08 04:46:57;;;;;;;0.20;0.20;;;1.30;99.90;;;;;;5011972;28;20764;-68
2021/12/08 04:49:53;;;;;;;0.20;0.20;;;1.40;99.90;;;;;;5017117;28;20716;-68
2021/12/08 04:52:29;;;;;;;0.20;0.20;;;1.40;99.90;;;;;;5014031;28;20724;-68
2021/12/08 05:00:57;;;;;;;0.10;0.10;;;1.40;99.90;;;;;;5016283;28;20600;-68
2021/12/08 05:03:44;;;;;;;0.20;0.20;;;1.40;99.90;;;;;;5014951;28;20622;-68
2021/12/08 05:06:23;;;;;;;0.10;0.10;;;1.40;99.90;;;;;;5012001;28;20621;-67
2021/12/08 05:08:53;;;;;;;0.20;0.20;;;1.40;99.90;;;;;;5008084;28;20714;-67
2021/12/08 05:11:26;;;;;;;0.10;0.10;;;1.40;99.90;;;;;;5008714;28;20666;-67
2021/12/08 05:13:56;;;;;;;0.10;0.10;;;1.40;99.90;;;;;;5011246;28;20721;-68
2021/12/08 05:16:26;;;;;;;0.20;0.20;;;1.40;99.90;;;;;;4997529;28;20607;-68
2021/12/08 05:18:56;;;;;;;0.20;0.20;;;1.50;99.90;;;;;;5015883;28;20640;-68
2021/12/08 05:21:27;;;;;;;0.10;0.10;;;1.50;99.90;;;;;;5015162;28;20642;-67
2021/12/08 05:23:59;;;;;;;0.10;0.10;;;1.50;99.90;;;;;;5016823;28;20623;-66
2021/12/08 05:26:32;;;;;;;0.20;0.20;;;1.50;99.90;;;;;;5008072;28;20712;-67
2021/12/08 05:29:06;;;;;;;0.20;0.20;;;1.50;99.90;;;;;;5006421;28;20619;-67
2021/12/08 05:31:33;;;;;;;0.10;0.10;;;1.50;99.90;;;;;;5013059;28;20650;-67
2021/12/08 05:34:02;;;;;;;0.20;0.20;;;1.60;99.90;;;;;;5010349;28;20736;-68
2021/12/08 05:36:29;;;;;;;0.20;0.20;;;1.50;99.90;;;;;;5015225;28;20612;-67
2021/12/08 05:38:58;;;;;;;0.10;0.10;;;1.60;99.90;;;;;;5005483;28;20695;-68
2021/12/08 05:41:32;;;;;;;0.20;0.20;;;1.60;99.90;;;;;;5009782;28;20630;-69
2021/12/08 05:44:00;;;;;;;0.20;0.20;;;1.60;99.90;;;;;;5008142;28;20627;-68
2021/12/08 05:46:29;;;;;;;0.10;0.10;;;1.60;99.90;;;;;;5011870;28;21196;-68
2021/12/08 05:48:57;;;;;;;0.20;0.20;;;1.60;99.90;;;;;;5005756;28;20626;-68
2021/12/08 05:51:29;;;;;;;0.10;0.10;;;1.60;99.90;;;;;;4997764;28;20615;-69
2021/12/08 05:54:00;;;;;;;0.10;0.10;;;1.60;99.90;;;;;;5029748;28;20725;-69
2021/12/08 05:56:29;;;;;;;0.10;0.10;;;1.60;99.90;;;;;;5025029;28;20615;-68
2021/12/08 05:58:59;;;;;;;0.20;0.20;;;1.60;99.90;;;;;;5014235;28;20635;-67
2021/12/08 06:01:31;;;;;;;0.10;0.10;;;1.60;99.90;;;;;;5010973;28;20647;-67
2021/12/08 06:03:59;;;;;;;0.10;0.10;;;1.70;99.90;;;;;;5010631;28;20631;-68
2021/12/08 06:06:28;;;;;;;0.10;0.10;;;1.70;99.90;;;;;;5015019;28;20611;-67
2021/12/08 06:08:57;;;;;;;0.10;0.10;;;1.70;99.90;;;;;;5010454;28;20611;-68
2021/12/08 06:11:26;;;;;;;0.20;0.20;;;1.70;99.90;;;;;;5005221;28;20652;-67
2021/12/08 06:13:54;;;;;;;0.20;0.20;;;1.70;99.90;;;;;;5007182;28;20626;-68
2021/12/08 06:16:21;;;;;;;0.10;0.10;;;1.70;99.90;;;;;;5009867;28;20710;-67
2021/12/08 06:18:51;;;;;;;0.17;0.17;;;1.70;99.90;;;;;;5009337;28;20611;-67
2021/12/08 06:21:23;;;;;;;0.10;0.10;;;1.70;99.90;;;;;;5010622;28;20766;-67
2021/12/08 06:23:58;;;;;;;0.10;0.10;;;1.70;99.90;;;;;;5005466;28;21210;-67
2021/12/08 06:26:27;;;;;;;0.10;0.10;;;1.70;99.90;;;;;;5004582;28;20623;-68
2021/12/08 06:28:55;;;;;;;0.10;0.10;;;1.60;99.90;;;;;;5003402;28;20629;-68
2021/12/08 06:31:27;;;;;;;0.10;0.10;;;1.60;99.90;;;;;;4997120;28;21073;-67
2021/12/08 06:33:56;;;;;;;0.10;0.10;;;1.50;99.90;;;;;;5002755;28;20672;-67
2021/12/08 06:36:26;;;;;;;0.10;0.10;;;1.50;99.90;;;;;;5010957;28;21269;-68
2021/12/08 06:38:53;;;;;;;0.10;0.10;;;1.50;99.90;;;;;;5008160;28;20641;-68
2021/12/08 06:41:25;;;;;;;0.20;0.20;;;1.50;99.90;;;;;;5010516;28;20669;-68
2021/12/08 06:43:56;;;;;;;0.10;0.10;;;1.40;99.90;;;;;;5007870;28;20628;-67
2021/12/08 06:46:25;;;;;;;0.10;0.10;;;1.40;99.90;;;;;;5016067;28;20635;-68
2021/12/08 06:48:55;;;;;;;0.20;0.20;;;1.40;99.90;;;;;;5012822;28;20632;-67
2021/12/08 06:51:25;;;;;;;0.10;0.10;;;1.40;99.90;;;;;;5007610;28;20666;-68
2021/12/08 06:53:56;;;;;;;0.10;0.10;;;1.40;99.90;;;;;;5008616;28;21205;-69
2021/12/08 06:56:29;;;;;;;0.10;0.10;;;1.30;99.90;;;;;;5007772;28;20643;-70
2021/12/08 06:59:00;;;;;;;0.17;0.17;;;1.30;99.90;;;;;;5016557;28;20611;-70
2021/12/08 07:01:40;;;;;;;0.10;0.10;;;1.30;99.90;;;;;;5015215;28;20606;-70
2021/12/08 07:04:25;;;;;;;0.10;0.10;;;1.30;99.90;;;;;;5025746;28;20693;-70
2021/12/08 07:07:00;;;;;;;0.10;0.10;;;1.40;99.90;;;;;;5010656;28;20658;-70
2021/12/08 07:09:34;;;;;;;0.13;0.13;;;1.40;99.90;;;;;;5025731;28;20612;-70
2021/12/08 07:12:08;;;;;;;0.20;0.20;;;1.30;99.90;;;;;;5010967;28;20730;-69
2021/12/08 07:14:36;;;;;;;0.13;0.13;;;1.30;99.90;;;;;;5009747;28;20645;-69
2021/12/08 07:17:07;;;;;;;0.10;0.10;;;1.30;99.90;;;;;;5015759;28;21126;-69
2021/12/08 07:19:45;;;;;;;0.10;0.10;;;1.30;99.90;;;;;;5004787;28;20669;-69
2021/12/08 07:22:15;;;;;;;0.10;0.10;;;1.30;99.90;;;;;;5004542;28;20670;-69
2021/12/08 07:24:45;;;;;;;0.10;0.10;;;1.30;99.90;;;;;;5007524;28;20685;-70
2021/12/08 07:27:21;;;;;;;0.10;0.10;;;1.30;99.90;;;;;;5016453;28;20658;-70
2021/12/08 07:29:50;;;;;;;0.20;0.20;;;1.30;99.90;;;;;;5011703;28;20651;-70
2021/12/08 07:32:20;;;;;;;0.10;0.10;;;1.30;99.90;;;;;;5012744;28;20633;-69
2021/12/08 07:34:50;;;;;;;0.20;0.20;;;1.30;99.90;;;;;;5014422;28;20706;-69
2021/12/08 07:37:20;;;;;;;0.20;0.20;;;1.30;99.90;;;;;;5011594;28;20776;-69
2021/12/08 07:39:50;;;;;;;0.10;0.10;;;1.20;99.90;;;;;;5014420;28;20706;-69
2021/12/08 07:42:24;;;;;;;0.10;0.10;;;1.20;99.90;;;;;;5013981;28;20631;-69
2021/12/08 07:44:54;;;;;;;0.10;0.10;;;1.30;99.90;;;;;;5015613;28;20208;-69
2021/12/08 07:47:23;;;;;;;0.10;0.10;;;1.20;99.90;;;;;;5012134;28;20634;-69
2021/12/08 07:49:54;;;;;;;0.20;0.20;;;1.30;99.90;;;;;;5011650;28;20697;-69
2021/12/08 07:52:24;;;;;;;0.10;0.10;;;1.30;99.90;;;;;;5006582;28;20627;-69
2021/12/08 07:54:52;;;;;;;0.20;0.20;;;1.20;99.90;;;;;;5011320;28;20626;-69
2021/12/08 07:57:25;;;;;;;0.20;0.20;;;1.20;99.90;;;;;;5023061;28;20661;-69
2021/12/08 08:00:00;;;;;;;0.10;0.10;;;1.20;99.90;;;;;;5013523;28;20729;-69
2021/12/08 08:02:28;;;;;;;0.10;0.10;;;1.20;99.90;;;;;;5011293;28;20634;-69
2021/12/08 08:04:59;;;;;;;0.10;0.10;;;1.30;99.90;;;;;;5007965;28;20634;-69
2021/12/08 08:07:26;;;;;;;0.10;0.10;;;1.30;99.90;;;;;;5018371;28;20724;-69
2021/12/08 08:10:00;;;;;;;0.10;0.10;;;1.30;99.90;;;;;;5021362;28;20223;-68
2021/12/08 08:12:32;;;;;;;0.10;0.10;;;1.30;99.90;;;;;;5019369;28;20603;-69
2021/12/08 08:15:03;;;;;;;0.10;0.10;;;1.30;99.90;;;;;;5019154;28;20641;-68
2021/12/08 08:17:36;;;;;;;0.20;0.20;;;1.30;99.90;;;;;;5016013;28;20659;-69
2021/12/08 08:20:08;;;;;;;0.20;0.20;;;1.30;99.90;;;;;;5014755;28;20968;-69
2021/12/08 08:22:35;;;;;;;0.10;0.10;;;1.30;99.90;;;;;;5016552;28;20207;-69
2021/12/08 08:25:07;;;;;;;0.10;0.10;;;1.30;99.90;;;;;;5009375;28;20197;-68
2021/12/08 08:27:36;;;;;;;0.20;0.20;;;1.40;99.90;;;;;;5012304;28;20666;-68
2021/12/08 08:30:08;;;;;;;0.10;0.10;;;1.40;99.90;;;;;;5019029;28;20860;-68
2021/12/08 08:32:39;;;;;;;0.20;0.20;;;1.40;99.90;;;;;;5013992;28;20615;-68
2021/12/08 08:35:12;;;;;;;0.10;0.10;;;1.40;99.90;;;;;;5016039;28;20658;-68
2021/12/08 08:37:39;;;;;;;0.10;0.10;;;1.40;99.90;;;;;;5011483;28;20781;-67
2021/12/08 08:40:11;;;;;;;0.20;0.20;;;1.50;99.90;;;;;;5013421;28;20637;-67
2021/12/08 08:42:42;;;;;;;0.10;0.10;;;1.50;99.90;;;;;;5008104;28;20681;-68
2021/12/08 08:45:13;;;;;;;0.17;0.17;;;1.50;99.90;;;;;;5008687;28;20607;-67
2021/12/08 08:47:43;;;;;;;0.20;0.20;;;1.50;99.90;;;;;;5010604;28;20672;-68
2021/12/08 08:50:14;;;;;;;0.20;0.20;;;1.50;99.90;;;;;;5013499;28;20693;-68
2021/12/08 08:52:52;;;;;;;0.20;0.20;;;1.60;99.90;;;;;;5013781;28;20638;-69
2021/12/08 08:55:26;;;;;;;0.10;0.10;;;1.60;99.90;;;;;;5015012;28;20625;-68
2021/12/08 08:57:55;;;;;;;0.10;0.10;;;1.70;99.90;;;;;;5020102;28;20711;-69
2021/12/08 09:00:30;;;;;;;0.20;0.20;;;1.70;99.90;;;;;;5014295;28;20620;-68
2021/12/08 09:02:59;;;;;;;0.20;0.20;;;1.70;99.90;;;;;;5013359;28;20614;-69
2021/12/08 09:05:31;;;;;;;0.10;0.10;;;1.80;99.90;;;;;;5013403;28;20620;-68
2021/12/08 09:08:00;;;;;;;0.20;0.20;;;1.70;99.90;;;;;;5009730;28;20670;-69
2021/12/08 09:10:33;;;;;;;0.20;0.20;;;1.80;99.90;;;;;;5011802;28;20651;-70
2021/12/08 09:13:06;;;;;;;0.10;0.10;;;1.80;99.90;;;;;;5014344;28;20629;-68
2021/12/08 09:15:38;;;;;;;0.10;0.10;;;1.80;99.90;;;;;;5011036;28;20634;-69
2021/12/08 09:18:10;;;;;;;0.17;0.17;;;1.80;99.90;;;;;;5015496;28;20646;-68
2021/12/08 09:20:42;;;;;;;0.20;0.20;;;1.80;99.90;;;;;;5015015;28;20714;-68
2021/12/08 09:23:14;;;;;;;0.20;0.20;;;1.80;99.90;;;;;;5021272;28;20623;-68
2021/12/08 09:25:46;;;;;;;0.10;0.10;;;1.80;99.90;;;;;;5012889;28;20623;-68
2021/12/08 09:28:18;;;;;;;0.10;0.10;;;1.80;99.90;;;;;;5009794;28;20654;-68
2021/12/08 09:30:48;;;;;;;0.20;0.20;;;1.90;99.90;;;;;;5019556;28;20651;-69
2021/12/08 09:33:20;;;;;;;0.10;0.10;;;1.90;99.90;;;;;;5007304;28;20634;-68
2021/12/08 09:35:52;;;;;;;0.10;0.10;;;1.90;99.90;;;;;;5012388;28;20628;-69
2021/12/08 09:38:22;;;;;;;0.10;0.10;;;1.90;99.90;;;;;;5015908;28;20650;-69
2021/12/08 09:40:57;;;;;;;0.10;0.10;;;2.00;99.90;;;;;;5008616;28;20756;-68
2021/12/08 09:43:29;;;;;;;0.10;0.10;;;2.00;99.90;;;;;;5014516;28;20607;-68
2021/12/08 09:46:00;;;;;;;0.10;0.10;;;2.00;99.90;;;;;;5008433;28;20611;-68
2021/12/08 09:48:29;;;;;;;0.20;0.20;;;2.00;99.90;;;;;;5012465;28;20639;-68
2021/12/08 09:50:57;;;;;;;0.10;0.10;;;2.00;99.90;;;;;;5007648;28;20744;-69
2021/12/08 09:53:26;;;;;;;0.10;0.10;;;2.00;99.90;;;;;;5013784;28;20635;-68
2021/12/08 09:55:55;;;;;;;0.20;0.20;;;2.00;99.90;;;;;;5014071;28;20608;-68
2021/12/08 09:58:22;;;;;;;0.20;0.20;;;2.10;99.90;;;;;;5005775;28;20655;-68
2021/12/08 10:00:57;;;;;;;0.10;0.10;;;2.10;99.90;;;;;;5009305;28;20630;-68
2021/12/08 10:03:24;;;;;;;0.10;0.10;;;2.10;99.90;;;;;;5008075;28;20619;-68
2021/12/08 10:05:52;;;;;;;0.10;0.10;;;2.10;99.90;;;;;;5009415;28;20612;-68
2021/12/08 10:08:20;;;;;;;0.10;0.10;;;2.10;99.90;;;;;;5000708;28;20700;-68
2021/12/08 10:10:48;;;;;;;0.10;0.10;;;2.10;99.90;;;;;;5018753;28;20647;-67
2021/12/08 10:13:17;;;;;;;0.10;0.10;;;2.10;99.90;;;;;;5007420;28;20610;-68
2021/12/08 10:15:44;;;;;;;0.17;0.17;;;2.20;99.90;;;;;;5007538;28;20624;-68
2021/12/08 10:18:13;;;;;;;0.10;0.10;;;2.10;99.90;;;;;;5010140;28;20647;-68
2021/12/08 10:20:43;;;;;;;0.10;0.10;;;2.10;99.90;;;;;;5020849;28;20614;-68
2021/12/08 10:23:15;;;;;;;0.10;0.10;;;2.10;99.90;;;;;;5015368;28;20623;-68
2021/12/08 10:25:44;;;;;;;0.20;0.20;;;2.10;99.90;;;;;;5014154;28;20677;-68
2021/12/08 10:28:14;;;;;;;0.13;0.13;;;2.10;99.90;;;;;;5019172;28;20736;-69
2021/12/08 10:30:46;;;;;;;0.10;0.10;;;2.10;99.90;;;;;;5019302;28;21042;-69
2021/12/08 10:33:55;;;;;;;0.10;0.10;;;2.00;99.90;;;;;;5015367;28;20618;-69
2021/12/08 10:39:22;;;;;;;0.10;0.10;;;2.00;99.90;;;;;;5000954;28;20610;-69
2021/12/08 10:42:00;;;;;;;0.13;0.13;;;2.00;99.90;;;;;;5017638;28;20645;-69
2021/12/08 10:44:32;;;;;;;0.17;0.17;;;2.10;99.90;;;;;;5008284;28;20607;-69
2021/12/08 10:47:02;;;;;;;0.10;0.10;;;2.10;99.90;;;;;;5012017;28;20658;-69
2021/12/08 10:54:58;;;;;;;0.10;0.10;;;2.10;99.90;;;;;;5013665;28;20603;-69
2021/12/08 10:57:29;;;;;;;0.10;0.10;;;2.10;99.90;;;;;;5020953;28;21328;-69
2021/12/08 10:59:59;;;;;;;0.10;0.10;;;2.10;99.90;;;;;;5013690;28;20769;-69
2021/12/08 11:02:47;;;;;;;0.10;0.10;;;2.10;99.90;;;;;;5008811;28;20636;-68
2021/12/08 11:05:39;;;;;;;0.10;0.10;;;2.20;99.90;;;;;;5013157;28;20670;-68
2021/12/08 11:08:14;;;;;;;0.10;0.10;;;2.10;99.90;;;;;;5009171;28;20642;-69
2021/12/08 11:10:49;;;;;;;0.10;0.10;;;2.20;99.90;;;;;;5022116;28;20611;-69
2021/12/08 11:13:19;;;;;;;0.10;0.10;;;2.20;99.90;;;;;;5013949;28;20703;-68
2021/12/08 11:15:47;;;;;;;0.10;0.10;;;2.20;99.90;;;;;;5019170;28;20638;-68
2021/12/08 11:18:18;;;;;;;0.10;0.10;;;2.20;99.90;;;;;;5015013;28;20705;-68
2021/12/08 11:20:48;;;;;;;0.10;0.10;;;2.20;99.90;;;;;;5023121;28;20627;-68
2021/12/08 11:23:28;;;;;;;0.13;0.13;;;2.20;99.90;;;;;;5015701;28;20607;-69
2021/12/08 11:25:56;;;;;;;0.10;0.10;;;2.20;99.90;;;;;;5016162;28;20622;-68
2021/12/08 11:28:30;;;;;;;0.10;0.10;;;2.30;99.90;;;;;;5017866;28;21191;-69
2021/12/08 11:31:07;;;;;;;0.10;0.10;;;2.30;99.90;;;;;;5015929;28;20674;-68
2021/12/08 11:33:37;;;;;;;0.10;0.10;;;2.40;99.90;;;;;;5013824;28;20672;-68
2021/12/08 11:36:14;;;;;;;0.10;0.10;;;2.40;99.90;;;;;;5013922;28;20730;-68
2021/12/08 11:38:44;;;;;;;0.10;0.10;;;2.40;99.90;;;;;;5007670;28;20646;-69
2021/12/08 11:41:34;;;;;;;0.13;0.13;;;2.50;99.90;;;;;;5018123;28;20631;-68
2021/12/08 11:44:04;;;;;;;0.20;0.20;;;2.50;99.90;;;;;;5007907;28;20616;-68
2021/12/08 11:46:35;;;;;;;0.10;0.10;;;2.60;99.90;;;;;;5009929;28;21275;-68
2021/12/08 11:49:08;;;;;;;0.10;0.10;;;2.60;99.90;;;;;;5011603;28;20622;-68
2021/12/08 11:51:51;;;;;;;0.20;0.20;;;2.60;99.90;;;;;;5007076;28;20646;-68
2021/12/08 11:54:29;;;;;;;0.10;0.10;;;2.60;99.90;;;;;;5007417;28;20629;-68
2021/12/08 11:57:03;;;;;;;0.10;0.10;;;2.70;99.90;;;;;;5015978;28;20639;-68
2021/12/08 11:59:30;;;;;;;0.10;0.10;;;2.70;99.90;;;;;;5016261;28;20618;-68
2021/12/08 12:01:57;;;;;;;0.10;0.10;;;2.70;99.90;;;;;;5016435;28;20729;-68
2021/12/08 12:04:25;;;;;;;0.10;0.10;;;2.60;99.90;;;;;;5024822;28;21262;-68
2021/12/08 12:06:52;;;;;;;0.10;0.10;;;2.60;99.90;;;;;;5009012;28;20716;-68
2021/12/08 12:09:19;;;;;;;0.10;0.10;;;2.60;99.90;;;;;;5008175;28;20627;-68
2021/12/08 12:11:52;;;;;;;0.10;0.10;;;2.60;99.90;;;;;;5008612;28;20651;-68
2021/12/08 12:14:22;;;;;;;0.10;0.10;;;2.50;99.90;;;;;;5006153;28;20627;-68
2021/12/08 12:16:49;;;;;;;0.10;0.10;;;2.60;99.90;;;;;;5014398;28;20743;-68
2021/12/08 12:19:17;;;;;;;0.10;0.10;;;2.50;99.90;;;;;;5009035;28;20623;-68
2021/12/08 12:21:58;;;;;;;0.10;0.10;;;2.60;99.90;;;;;;5016947;28;20619;-68
2021/12/08 12:24:44;;;;;;;0.10;0.10;;;2.60;99.90;;;;;;5009169;28;20599;-68
2021/12/08 12:27:32;;;;;;;0.10;0.10;;;2.60;99.90;;;;;;5015296;28;20669;-68
2021/12/08 12:30:12;;;;;;;0.10;0.10;;;2.70;99.90;;;;;;5009967;28;20712;-68
2021/12/08 12:32:45;;;;;;;0.10;0.10;;;2.70;99.90;;;;;;5008367;28;20714;-67
2021/12/08 12:35:16;;;;;;;0.10;0.10;;;2.70;99.90;;;;;;5011080;28;20642;-68
2021/12/08 12:37:44;;;;;;;0.10;0.10;;;2.80;99.90;;;;;;5009093;28;20649;-68
2021/12/08 12:40:16;;;;;;;0.17;0.17;;;2.80;99.90;;;;;;5013636;28;20634;-68
2021/12/08 12:42:51;;;;;;;0.10;0.10;;;2.80;99.90;;;;;;5013763;28;20641;-68
2021/12/08 12:45:20;;;;;;;0.20;0.20;;;2.80;99.90;;;;;;5013792;28;20609;-68
2021/12/08 12:48:09;;;;;;;0.10;0.10;;;2.80;99.90;;;;;;5009532;28;21089;-68
2021/12/08 12:51:01;;;;;;;0.10;0.10;;;2.80;99.90;;;;;;5012986;28;20655;-69
2021/12/08 12:53:45;;;;;;;0.10;0.10;;;2.80;99.90;;;;;;4998521;28;20778;-68
2021/12/08 12:56:15;;;;;;;0.10;0.10;;;2.80;99.90;;;;;;5011772;28;20627;-68
2021/12/08 12:58:51;;;;;;;0.20;0.20;;;2.80;99.90;;;;;;5012984;28;21020;-68
2021/12/08 13:01:25;;;;;;;0.20;0.20;;;2.80;99.90;;;;;;5007759;28;20665;-68
2021/12/08 13:03:55;;;;;;;0.17;0.17;;;2.80;99.90;;;;;;5007541;28;20658;-68
2021/12/08 13:06:46;;;;;;;0.20;0.20;;;2.80;99.90;;;;;;5019675;28;20611;-68
2021/12/08 13:09:40;;;;;;;0.10;0.10;;;2.80;99.90;;;;;;5011396;28;20642;-68
2021/12/08 13:12:09;;;;;;;0.10;0.10;;;2.70;99.90;;;;;;5007934;28;20651;-68
2021/12/08 13:14:38;;;;;;;0.10;0.10;;;2.70;99.90;;;;;;5007344;28;20603;-68
2021/12/08 13:17:15;;;;;;;0.10;0.10;;;2.70;99.90;;;;;;5013756;28;21263;-68
2021/12/08 13:19:46;;;;;;;0.10;0.10;;;2.70;99.90;;;;;;5012474;28;20631;-68
2021/12/08 13:22:42;;;;;;;0.10;0.10;;;2.70;99.90;;;;;;5016257;28;20623;-68
2021/12/08 13:25:27;;;;;;;0.10;0.10;;;2.70;99.90;;;;;;5022356;28;20636;-68
2021/12/08 13:27:56;;;;;;;0.10;0.10;;;2.80;99.90;;;;;;5012978;28;20674;-68
2021/12/08 13:30:27;;;;;;;0.10;0.10;;;2.70;99.90;;;;;;5012508;28;21157;-68
2021/12/08 13:33:07;;;;;;;0.10;0.10;;;2.70;99.90;;;;;;5014035;28;20659;-68
2021/12/08 13:35:35;;;;;;;0.10;0.10;;;2.70;99.90;;;;;;5011484;28;20630;-68
2021/12/08 13:38:04;;;;;;;0.10;0.10;;;2.70;99.90;;;;;;5032742;28;20658;-68
2021/12/08 13:40:43;;;;;;;0.10;0.10;;;2.70;99.90;;;;;;5014858;28;20641;-68
2021/12/08 13:43:11;;;;;;;0.10;0.10;;;2.70;99.90;;;;;;5007862;28;20610;-68
2021/12/08 13:45:44;;;;;;;0.10;0.10;;;2.70;99.90;;;;;;5008357;28;20627;-68
2021/12/08 13:48:11;;;;;;;0.10;0.10;;;2.70;99.90;;;;;;5009071;28;20657;-68
2021/12/08 13:50:38;;;;;;;0.10;0.10;;;2.60;99.90;;;;;;4999517;28;21062;-68
2021/12/08 13:53:10;;;;;;;0.20;0.20;;;2.70;99.90;;;;;;5009163;28;20658;-68